sensor_id;sensor_type;location;lat;lon;timestamp;temperature;humidity
19174;DHT22;9719;49.322;8.536;2023-06-26T00:01:47;27.40;66.90
19174;DHT22;9719;49.322;8.536;2023-06-26T00:06:50;27.40;67.00
19174;DHT22;9719;49.322;8.536;2023-06-26T00:11:52;27.40;67.00
19174;DHT22;9719;49.322;8.536;2023-06-26T00:16:54;27.40;67.10
19174;DHT22;9719;49.322;8.536;2023-06-26T00:21:57;27.40;67.10
19174;DHT22;9719;49.322;8.536;2023-06-26T00:26:58;27.40;67.20
19174;DHT22;9719;49.322;8.536;2023-06-26T00:32:00;27.30;67.20
19174;DHT22;9719;49.322;8.536;2023-06-26T00:37:03;27.30;67.30
19174;DHT22;9719;49.322;8.536;2023-06-26T00:42:06;27.30;67.30
19174;DHT22;9719;49.322;8.536;2023-06-26T00:47:08;27.30;67.30
19174;DHT22;9719;49.322;8.536;2023-06-26T00:52:12;27.30;67.40
19174;DHT22;9719;49.322;8.536;2023-06-26T00:57:14;27.30;67.50
19174;DHT22;9719;49.322;8.536;2023-06-26T01:02:15;27.30;67.50
19174;DHT22;9719;49.322;8.536;2023-06-26T01:07:22;27.30;67.70
19174;DHT22;9719;49.322;8.536;2023-06-26T01:12:24;27.30;67.70
19174;DHT22;9719;49.322;8.536;2023-06-26T01:17:27;27.30;67.70
19174;DHT22;9719;49.322;8.536;2023-06-26T01:22:38;27.30;67.80
19174;DHT22;9719;49.322;8.536;2023-06-26T01:27:50;27.30;67.90
19174;DHT22;9719;49.322;8.536;2023-06-26T01:32:52;27.30;67.90
19174;DHT22;9719;49.322;8.536;2023-06-26T01:37:53;27.20;67.90
19174;DHT22;9719;49.322;8.536;2023-06-26T01:42:57;27.20;68.00
19174;DHT22;9719;49.322;8.536;2023-06-26T01:48:00;27.20;68.10
19174;DHT22;9719;49.322;8.536;2023-06-26T01:53:06;27.20;68.10
19174;DHT22;9719;49.322;8.536;2023-06-26T01:58:13;27.20;68.20
19174;DHT22;9719;49.322;8.536;2023-06-26T02:03:17;27.20;68.30
19174;DHT22;9719;49.322;8.536;2023-06-26T02:08:19;27.20;68.30
19174;DHT22;9719;49.322;8.536;2023-06-26T02:13:22;27.20;68.50
19174;DHT22;9719;49.322;8.536;2023-06-26T02:18:23;27.20;68.50
19174;DHT22;9719;49.322;8.536;2023-06-26T02:23:25;27.10;68.50
19174;DHT22;9719;49.322;8.536;2023-06-26T02:28:28;27.10;68.60
19174;DHT22;9719;49.322;8.536;2023-06-26T02:33:31;27.10;68.60
19174;DHT22;9719;49.322;8.536;2023-06-26T02:38:33;27.10;68.60
19174;DHT22;9719;49.322;8.536;2023-06-26T02:43:35;27.10;68.60
19174;DHT22;9719;49.322;8.536;2023-06-26T02:48:37;27.10;68.70
19174;DHT22;9719;49.322;8.536;2023-06-26T02:53:39;27.10;68.70
19174;DHT22;9719;49.322;8.536;2023-06-26T02:58:42;27.10;68.70
19174;DHT22;9719;49.322;8.536;2023-06-26T03:03:43;27.10;68.70
19174;DHT22;9719;49.322;8.536;2023-06-26T03:08:47;27.10;68.80
19174;DHT22;9719;49.322;8.536;2023-06-26T03:13:50;27.10;68.80
19174;DHT22;9719;49.322;8.536;2023-06-26T03:18:52;27.10;68.90
19174;DHT22;9719;49.322;8.536;2023-06-26T03:23:53;27.10;68.90
19174;DHT22;9719;49.322;8.536;2023-06-26T03:28:56;27.10;68.90
19174;DHT22;9719;49.322;8.536;2023-06-26T03:33:59;27.10;68.90
19174;DHT22;9719;49.322;8.536;2023-06-26T03:39:01;27.00;68.90
19174;DHT22;9719;49.322;8.536;2023-06-26T03:44:05;27.00;69.00
19174;DHT22;9719;49.322;8.536;2023-06-26T03:49:07;27.00;69.00
19174;DHT22;9719;49.322;8.536;2023-06-26T03:54:09;27.00;69.00
19174;DHT22;9719;49.322;8.536;2023-06-26T03:59:12;27.00;69.10
19174;DHT22;9719;49.322;8.536;2023-06-26T04:04:13;27.10;69.20
19174;DHT22;9719;49.322;8.536;2023-06-26T04:09:15;27.00;69.10
19174;DHT22;9719;49.322;8.536;2023-06-26T04:14:18;27.00;69.20
19174;DHT22;9719;49.322;8.536;2023-06-26T04:19:20;27.00;69.30
19174;DHT22;9719;49.322;8.536;2023-06-26T04:24:22;27.00;69.30
19174;DHT22;9719;49.322;8.536;2023-06-26T04:29:25;27.00;69.30
19174;DHT22;9719;49.322;8.536;2023-06-26T04:34:28;27.00;69.40
19174;DHT22;9719;49.322;8.536;2023-06-26T04:39:32;27.00;69.40
19174;DHT22;9719;49.322;8.536;2023-06-26T04:44:38;27.00;69.40
19174;DHT22;9719;49.322;8.536;2023-06-26T04:49:41;27.00;69.50
19174;DHT22;9719;49.322;8.536;2023-06-26T04:54:46;27.00;69.50
19174;DHT22;9719;49.322;8.536;2023-06-26T04:59:49;27.00;69.50
19174;DHT22;9719;49.322;8.536;2023-06-26T05:04:50;27.00;69.70
19174;DHT22;9719;49.322;8.536;2023-06-26T05:09:52;27.00;69.70
19174;DHT22;9719;49.322;8.536;2023-06-26T05:14:55;27.00;69.80
19174;DHT22;9719;49.322;8.536;2023-06-26T05:19:57;27.00;70.00
19174;DHT22;9719;49.322;8.536;2023-06-26T05:24:59;26.90;69.90
19174;DHT22;9719;49.322;8.536;2023-06-26T05:30:03;27.00;70.00
19174;DHT22;9719;49.322;8.536;2023-06-26T05:35:06;27.00;70.00
19174;DHT22;9719;49.322;8.536;2023-06-26T05:40:09;26.90;70.00
19174;DHT22;9719;49.322;8.536;2023-06-26T05:45:12;27.00;70.10
19174;DHT22;9719;49.322;8.536;2023-06-26T05:50:15;27.00;70.20
19174;DHT22;9719;49.322;8.536;2023-06-26T05:55:17;27.00;70.30
19174;DHT22;9719;49.322;8.536;2023-06-26T06:00:21;26.90;70.30
19174;DHT22;9719;49.322;8.536;2023-06-26T06:05:23;27.00;70.40
19174;DHT22;9719;49.322;8.536;2023-06-26T06:10:25;27.00;70.50
19174;DHT22;9719;49.322;8.536;2023-06-26T06:15:28;27.00;70.50
19174;DHT22;9719;49.322;8.536;2023-06-26T06:20:29;27.00;70.60
19174;DHT22;9719;49.322;8.536;2023-06-26T06:25:31;27.00;70.80
19174;DHT22;9719;49.322;8.536;2023-06-26T06:30:34;27.00;70.70
19174;DHT22;9719;49.322;8.536;2023-06-26T06:35:35;27.00;70.70
19174;DHT22;9719;49.322;8.536;2023-06-26T06:40:37;27.00;70.80
19174;DHT22;9719;49.322;8.536;2023-06-26T06:45:40;27.00;70.80
19174;DHT22;9719;49.322;8.536;2023-06-26T06:50:42;27.10;70.90
19174;DHT22;9719;49.322;8.536;2023-06-26T06:55:44;27.10;71.00
19174;DHT22;9719;49.322;8.536;2023-06-26T07:00:47;27.10;71.00
19174;DHT22;9719;49.322;8.536;2023-06-26T07:05:49;27.10;71.10
19174;DHT22;9719;49.322;8.536;2023-06-26T07:10:51;27.10;71.20
19174;DHT22;9719;49.322;8.536;2023-06-26T07:15:53;27.10;71.30
19174;DHT22;9719;49.322;8.536;2023-06-26T07:20:55;27.20;71.50
19174;DHT22;9719;49.322;8.536;2023-06-26T07:25:57;27.20;71.50
19174;DHT22;9719;49.322;8.536;2023-06-26T07:31:00;27.20;71.50
19174;DHT22;9719;49.322;8.536;2023-06-26T07:36:02;27.20;71.60
19174;DHT22;9719;49.322;8.536;2023-06-26T07:41:03;27.30;71.70
19174;DHT22;9719;49.322;8.536;2023-06-26T07:46:06;27.30;71.70
19174;DHT22;9719;49.322;8.536;2023-06-26T07:51:08;27.30;71.80
19174;DHT22;9719;49.322;8.536;2023-06-26T07:56:09;27.30;71.80
19174;DHT22;9719;49.322;8.536;2023-06-26T08:01:12;27.30;71.90
19174;DHT22;9719;49.322;8.536;2023-06-26T08:06:14;27.40;72.00
19174;DHT22;9719;49.322;8.536;2023-06-26T08:11:16;27.40;72.20
19174;DHT22;9719;49.322;8.536;2023-06-26T08:16:19;27.40;72.20
19174;DHT22;9719;49.322;8.536;2023-06-26T08:21:20;27.40;72.10
19174;DHT22;9719;49.322;8.536;2023-06-26T08:26:22;27.50;72.20
19174;DHT22;9719;49.322;8.536;2023-06-26T08:31:25;27.50;72.20
19174;DHT22;9719;49.322;8.536;2023-06-26T08:36:27;27.60;72.40
19174;DHT22;9719;49.322;8.536;2023-06-26T08:41:28;27.60;72.40
19174;DHT22;9719;49.322;8.536;2023-06-26T08:46:31;27.70;72.50
19174;DHT22;9719;49.322;8.536;2023-06-26T08:51:34;27.70;72.60
19174;DHT22;9719;49.322;8.536;2023-06-26T08:56:41;27.80;72.70
19174;DHT22;9719;49.322;8.536;2023-06-26T09:01:45;27.80;72.70
19174;DHT22;9719;49.322;8.536;2023-06-26T09:06:47;27.90;72.80
19174;DHT22;9719;49.322;8.536;2023-06-26T09:11:48;27.90;72.90
19174;DHT22;9719;49.322;8.536;2023-06-26T09:16:51;27.90;72.80
19174;DHT22;9719;49.322;8.536;2023-06-26T09:21:54;28.00;72.90
19174;DHT22;9719;49.322;8.536;2023-06-26T09:26:56;28.00;73.00
19174;DHT22;9719;49.322;8.536;2023-06-26T09:32:00;28.10;73.00
19174;DHT22;9719;49.322;8.536;2023-06-26T09:37:01;28.10;73.70
19174;DHT22;9719;49.322;8.536;2023-06-26T09:42:05;28.10;72.60
19174;DHT22;9719;49.322;8.536;2023-06-26T09:47:08;28.20;72.60
19174;DHT22;9719;49.322;8.536;2023-06-26T09:52:13;28.20;72.50
19174;DHT22;9719;49.322;8.536;2023-06-26T09:57:17;28.20;72.40
19174;DHT22;9719;49.322;8.536;2023-06-26T10:02:21;28.20;72.40
19174;DHT22;9719;49.322;8.536;2023-06-26T10:07:23;28.20;72.20
19174;DHT22;9719;49.322;8.536;2023-06-26T10:12:27;28.20;72.20
19174;DHT22;9719;49.322;8.536;2023-06-26T10:17:34;28.30;72.10
19174;DHT22;9719;49.322;8.536;2023-06-26T10:22:40;28.30;72.00
19174;DHT22;9719;49.322;8.536;2023-06-26T10:27:45;28.30;72.20
19174;DHT22;9719;49.322;8.536;2023-06-26T10:32:50;28.40;72.10
19174;DHT22;9719;49.322;8.536;2023-06-26T10:37:52;28.40;72.00
19174;DHT22;9719;49.322;8.536;2023-06-26T10:43:05;28.40;72.00
19174;DHT22;9719;49.322;8.536;2023-06-26T10:48:09;28.50;71.90
19174;DHT22;9719;49.322;8.536;2023-06-26T10:53:14;28.40;71.80
19174;DHT22;9719;49.322;8.536;2023-06-26T10:58:40;28.50;71.80
19174;DHT22;9719;49.322;8.536;2023-06-26T11:03:44;28.50;71.60
19174;DHT22;9719;49.322;8.536;2023-06-26T11:08:47;28.50;71.60
19174;DHT22;9719;49.322;8.536;2023-06-26T11:13:49;28.50;71.40
19174;DHT22;9719;49.322;8.536;2023-06-26T11:18:58;28.50;71.40
19174;DHT22;9719;49.322;8.536;2023-06-26T11:24:01;28.60;71.40
19174;DHT22;9719;49.322;8.536;2023-06-26T11:29:03;28.60;71.30
19174;DHT22;9719;49.322;8.536;2023-06-26T11:34:08;28.60;71.30
19174;DHT22;9719;49.322;8.536;2023-06-26T11:39:11;28.60;71.20
19174;DHT22;9719;49.322;8.536;2023-06-26T11:44:12;28.60;71.10
19174;DHT22;9719;49.322;8.536;2023-06-26T11:49:16;28.60;71.10
19174;DHT22;9719;49.322;8.536;2023-06-26T11:54:23;28.70;71.10
19174;DHT22;9719;49.322;8.536;2023-06-26T11:59:34;28.70;71.00
19174;DHT22;9719;49.322;8.536;2023-06-26T12:04:38;28.70;71.00
19174;DHT22;9719;49.322;8.536;2023-06-26T12:09:42;28.70;70.80
19174;DHT22;9719;49.322;8.536;2023-06-26T12:14:45;28.70;70.80
19174;DHT22;9719;49.322;8.536;2023-06-26T12:19:49;28.70;70.70
19174;DHT22;9719;49.322;8.536;2023-06-26T12:24:51;28.80;70.60
19174;DHT22;9719;49.322;8.536;2023-06-26T12:29:54;28.80;70.60
19174;DHT22;9719;49.322;8.536;2023-06-26T12:34:57;28.80;70.40
19174;DHT22;9719;49.322;8.536;2023-06-26T12:39:59;28.80;70.30
19174;DHT22;9719;49.322;8.536;2023-06-26T12:45:10;28.80;70.10
19174;DHT22;9719;49.322;8.536;2023-06-26T12:50:14;28.90;69.90
19174;DHT22;9719;49.322;8.536;2023-06-26T12:55:17;28.90;69.70
19174;DHT22;9719;49.322;8.536;2023-06-26T13:00:19;28.90;69.60
19174;DHT22;9719;49.322;8.536;2023-06-26T13:05:22;28.90;69.50
19174;DHT22;9719;49.322;8.536;2023-06-26T13:10:24;29.00;69.30
19174;DHT22;9719;49.322;8.536;2023-06-26T13:15:27;29.00;69.20
19174;DHT22;9719;49.322;8.536;2023-06-26T13:20:31;29.00;69.00
19174;DHT22;9719;49.322;8.536;2023-06-26T13:25:33;29.00;68.80
19174;DHT22;9719;49.322;8.536;2023-06-26T13:30:34;29.00;68.70
19174;DHT22;9719;49.322;8.536;2023-06-26T13:35:37;29.10;68.60
19174;DHT22;9719;49.322;8.536;2023-06-26T13:40:39;29.10;68.40
19174;DHT22;9719;49.322;8.536;2023-06-26T13:45:41;29.10;68.30
19174;DHT22;9719;49.322;8.536;2023-06-26T13:50:44;29.10;68.20
19174;DHT22;9719;49.322;8.536;2023-06-26T13:55:46;29.10;68.00
19174;DHT22;9719;49.322;8.536;2023-06-26T14:00:48;29.20;68.20
19174;DHT22;9719;49.322;8.536;2023-06-26T14:05:51;29.20;67.90
19174;DHT22;9719;49.322;8.536;2023-06-26T14:10:52;29.20;67.80
19174;DHT22;9719;49.322;8.536;2023-06-26T14:15:54;29.20;67.70
19174;DHT22;9719;49.322;8.536;2023-06-26T14:20:58;29.20;67.60
19174;DHT22;9719;49.322;8.536;2023-06-26T14:25:59;29.20;67.40
19174;DHT22;9719;49.322;8.536;2023-06-26T14:31:01;29.20;67.20
19174;DHT22;9719;49.322;8.536;2023-06-26T14:36:04;29.20;67.20
19174;DHT22;9719;49.322;8.536;2023-06-26T14:41:06;29.30;66.90
19174;DHT22;9719;49.322;8.536;2023-06-26T14:46:07;29.30;66.70
19174;DHT22;9719;49.322;8.536;2023-06-26T14:51:10;29.30;66.60
19174;DHT22;9719;49.322;8.536;2023-06-26T14:56:12;29.30;66.40
19174;DHT22;9719;49.322;8.536;2023-06-26T15:01:14;29.30;66.30
19174;DHT22;9719;49.322;8.536;2023-06-26T15:06:17;29.30;66.00
19174;DHT22;9719;49.322;8.536;2023-06-26T15:11:19;29.30;66.00
19174;DHT22;9719;49.322;8.536;2023-06-26T15:16:21;29.30;65.60
19174;DHT22;9719;49.322;8.536;2023-06-26T15:21:24;29.30;65.20
19174;DHT22;9719;49.322;8.536;2023-06-26T15:26:25;29.30;64.80
19174;DHT22;9719;49.322;8.536;2023-06-26T15:31:28;29.30;64.30
19174;DHT22;9719;49.322;8.536;2023-06-26T15:36:32;29.30;64.00
19174;DHT22;9719;49.322;8.536;2023-06-26T15:41:33;29.30;64.00
19174;DHT22;9719;49.322;8.536;2023-06-26T15:46:37;29.30;63.60
19174;DHT22;9719;49.322;8.536;2023-06-26T15:51:40;29.30;62.40
19174;DHT22;9719;49.322;8.536;2023-06-26T15:56:42;29.30;62.70
19174;DHT22;9719;49.322;8.536;2023-06-26T16:01:44;29.30;62.00
19174;DHT22;9719;49.322;8.536;2023-06-26T16:06:47;29.20;61.80
19174;DHT22;9719;49.322;8.536;2023-06-26T16:11:49;29.30;61.50
19174;DHT22;9719;49.322;8.536;2023-06-26T16:16:50;29.30;61.40
19174;DHT22;9719;49.322;8.536;2023-06-26T16:21:53;29.20;60.10
19174;DHT22;9719;49.322;8.536;2023-06-26T16:26:55;29.30;60.40
19174;DHT22;9719;49.322;8.536;2023-06-26T16:31:56;29.30;60.50
19174;DHT22;9719;49.322;8.536;2023-06-26T16:36:59;29.30;60.50
19174;DHT22;9719;49.322;8.536;2023-06-26T16:42:07;29.30;60.40
19174;DHT22;9719;49.322;8.536;2023-06-26T16:47:09;29.30;60.50
19174;DHT22;9719;49.322;8.536;2023-06-26T16:52:12;29.30;60.50
19174;DHT22;9719;49.322;8.536;2023-06-26T16:57:14;29.30;60.40
19174;DHT22;9719;49.322;8.536;2023-06-26T17:02:16;29.30;60.00
19174;DHT22;9719;49.322;8.536;2023-06-26T17:07:19;29.30;58.50
19174;DHT22;9719;49.322;8.536;2023-06-26T17:12:21;29.30;57.90
19174;DHT22;9719;49.322;8.536;2023-06-26T17:17:22;29.20;57.20
19174;DHT22;9719;49.322;8.536;2023-06-26T17:22:25;29.20;57.10
19174;DHT22;9719;49.322;8.536;2023-06-26T17:27:27;29.20;56.40
19174;DHT22;9719;49.322;8.536;2023-06-26T17:32:29;29.20;56.30
19174;DHT22;9719;49.322;8.536;2023-06-26T17:37:32;29.20;56.10
19174;DHT22;9719;49.322;8.536;2023-06-26T17:42:34;29.10;55.60
19174;DHT22;9719;49.322;8.536;2023-06-26T17:47:39;29.10;55.40
19174;DHT22;9719;49.322;8.536;2023-06-26T17:52:43;29.10;55.30
19174;DHT22;9719;49.322;8.536;2023-06-26T17:57:44;29.10;55.30
19174;DHT22;9719;49.322;8.536;2023-06-26T18:02:46;29.10;55.50
19174;DHT22;9719;49.322;8.536;2023-06-26T18:07:50;29.00;55.50
19174;DHT22;9719;49.322;8.536;2023-06-26T18:12:52;29.00;55.50
19174;DHT22;9719;49.322;8.536;2023-06-26T18:17:56;28.90;55.70
19174;DHT22;9719;49.322;8.536;2023-06-26T18:22:59;28.90;55.80
19174;DHT22;9719;49.322;8.536;2023-06-26T18:28:01;28.90;56.50
19174;DHT22;9719;49.322;8.536;2023-06-26T18:33:02;28.90;56.10
19174;DHT22;9719;49.322;8.536;2023-06-26T18:38:05;28.80;56.30
19174;DHT22;9719;49.322;8.536;2023-06-26T18:43:11;28.80;56.40
19174;DHT22;9719;49.322;8.536;2023-06-26T18:48:13;28.80;56.50
19174;DHT22;9719;49.322;8.536;2023-06-26T18:53:16;28.80;56.60
19174;DHT22;9719;49.322;8.536;2023-06-26T18:58:17;28.80;56.60
19174;DHT22;9719;49.322;8.536;2023-06-26T19:03:19;28.70;56.70
19174;DHT22;9719;49.322;8.536;2023-06-26T19:08:22;28.70;56.70
19174;DHT22;9719;49.322;8.536;2023-06-26T19:13:24;28.70;56.70
19174;DHT22;9719;49.322;8.536;2023-06-26T19:18:26;28.60;56.60
19174;DHT22;9719;49.322;8.536;2023-06-26T19:23:29;28.60;56.60
19174;DHT22;9719;49.322;8.536;2023-06-26T19:28:31;28.60;56.90
19174;DHT22;9719;49.322;8.536;2023-06-26T19:33:33;28.50;57.10
19174;DHT22;9719;49.322;8.536;2023-06-26T19:38:36;28.50;57.30
19174;DHT22;9719;49.322;8.536;2023-06-26T19:43:37;28.50;57.50
19174;DHT22;9719;49.322;8.536;2023-06-26T19:48:39;28.40;57.50
19174;DHT22;9719;49.322;8.536;2023-06-26T19:53:42;28.40;57.50
19174;DHT22;9719;49.322;8.536;2023-06-26T19:58:43;28.40;57.60
19174;DHT22;9719;49.322;8.536;2023-06-26T20:03:45;28.30;57.30
19174;DHT22;9719;49.322;8.536;2023-06-26T20:08:48;28.20;56.90
19174;DHT22;9719;49.322;8.536;2023-06-26T20:13:50;28.00;56.80
19174;DHT22;9719;49.322;8.536;2023-06-26T20:18:51;27.90;57.00
19174;DHT22;9719;49.322;8.536;2023-06-26T20:23:54;27.80;57.00
19174;DHT22;9719;49.322;8.536;2023-06-26T20:28:56;27.70;57.10
19174;DHT22;9719;49.322;8.536;2023-06-26T20:33:58;27.60;57.30
19174;DHT22;9719;49.322;8.536;2023-06-26T20:39:01;27.50;57.40
19174;DHT22;9719;49.322;8.536;2023-06-26T20:44:03;27.40;57.30
19174;DHT22;9719;49.322;8.536;2023-06-26T20:49:05;27.20;57.30
19174;DHT22;9719;49.322;8.536;2023-06-26T20:54:09;27.10;57.40
19174;DHT22;9719;49.322;8.536;2023-06-26T20:59:11;27.00;57.60
19174;DHT22;9719;49.322;8.536;2023-06-26T21:04:13;27.00;57.60
19174;DHT22;9719;49.322;8.536;2023-06-26T21:09:16;26.90;57.30
19174;DHT22;9719;49.322;8.536;2023-06-26T21:14:17;26.80;57.30
19174;DHT22;9719;49.322;8.536;2023-06-26T21:19:19;26.70;57.20
19174;DHT22;9719;49.322;8.536;2023-06-26T21:24:22;26.70;57.20
19174;DHT22;9719;49.322;8.536;2023-06-26T21:29:23;26.60;57.10
19174;DHT22;9719;49.322;8.536;2023-06-26T21:34:25;26.50;57.10
19174;DHT22;9719;49.322;8.536;2023-06-26T21:39:28;26.40;57.00
19174;DHT22;9719;49.322;8.536;2023-06-26T21:44:30;26.40;57.20
19174;DHT22;9719;49.322;8.536;2023-06-26T21:49:31;26.40;57.40
19174;DHT22;9719;49.322;8.536;2023-06-26T21:54:34;26.30;57.40
19174;DHT22;9719;49.322;8.536;2023-06-26T21:59:36;26.30;57.60
19174;DHT22;9719;49.322;8.536;2023-06-26T22:04:37;26.20;57.40
19174;DHT22;9719;49.322;8.536;2023-06-26T22:09:40;26.10;57.50
19174;DHT22;9719;49.322;8.536;2023-06-26T22:14:42;26.10;57.70
19174;DHT22;9719;49.322;8.536;2023-06-26T22:19:44;26.10;57.90
19174;DHT22;9719;49.322;8.536;2023-06-26T22:24:47;26.00;58.00
19174;DHT22;9719;49.322;8.536;2023-06-26T22:29:49;26.00;58.10
19174;DHT22;9719;49.322;8.536;2023-06-26T22:34:51;25.90;58.00
19174;DHT22;9719;49.322;8.536;2023-06-26T22:39:54;25.90;58.10
19174;DHT22;9719;49.322;8.536;2023-06-26T22:44:55;25.80;58.20
19174;DHT22;9719;49.322;8.536;2023-06-26T22:49:57;25.70;58.30
19174;DHT22;9719;49.322;8.536;2023-06-26T22:55:00;25.70;58.50
19174;DHT22;9719;49.322;8.536;2023-06-26T23:00:03;25.70;58.80
19174;DHT22;9719;49.322;8.536;2023-06-26T23:05:10;25.60;58.70
19174;DHT22;9719;49.322;8.536;2023-06-26T23:10:13;25.60;58.70
19174;DHT22;9719;49.322;8.536;2023-06-26T23:15:15;25.60;58.90
19174;DHT22;9719;49.322;8.536;2023-06-26T23:20:17;25.50;59.00
19174;DHT22;9719;49.322;8.536;2023-06-26T23:25:20;25.50;59.10
19174;DHT22;9719;49.322;8.536;2023-06-26T23:30:21;25.50;59.30
19174;DHT22;9719;49.322;8.536;2023-06-26T23:35:23;25.50;59.50
19174;DHT22;9719;49.322;8.536;2023-06-26T23:40:26;25.70;59.80
19174;DHT22;9719;49.322;8.536;2023-06-26T23:45:29;25.70;59.90
19174;DHT22;9719;49.322;8.536;2023-06-26T23:50:32;25.90;60.00
19174;DHT22;9719;49.322;8.536;2023-06-26T23:55:35;26.00;60.00
